sensor_id;sensor_type;location;lat;lon;timestamp;temperature;humidity
24144;DHT22;12307;50.828;6.080;2022-11-09T00:02:19;21.10;60.20
24144;DHT22;12307;50.828;6.080;2022-11-09T00:04:44;21.00;60.10
24144;DHT22;12307;50.828;6.080;2022-11-09T00:07:10;21.00;60.10
24144;DHT22;12307;50.828;6.080;2022-11-09T00:09:36;21.00;60.10
24144;DHT22;12307;50.828;6.080;2022-11-09T00:12:01;21.00;60.10
24144;DHT22;12307;50.828;6.080;2022-11-09T00:14:29;21.00;60.20
24144;DHT22;12307;50.828;6.080;2022-11-09T00:16:54;21.00;60.20
24144;DHT22;12307;50.828;6.080;2022-11-09T00:19:22;21.00;60.20
24144;DHT22;12307;50.828;6.080;2022-11-09T00:21:48;21.00;60.30
24144;DHT22;12307;50.828;6.080;2022-11-09T00:24:14;21.00;60.40
24144;DHT22;12307;50.828;6.080;2022-11-09T00:26:40;21.00;60.20
24144;DHT22;12307;50.828;6.080;2022-11-09T00:29:06;21.00;60.10
24144;DHT22;12307;50.828;6.080;2022-11-09T00:31:31;21.00;60.10
24144;DHT22;12307;50.828;6.080;2022-11-09T00:33:57;21.00;60.10
24144;DHT22;12307;50.828;6.080;2022-11-09T00:36:26;21.00;60.10
24144;DHT22;12307;50.828;6.080;2022-11-09T00:38:53;21.00;60.10
24144;DHT22;12307;50.828;6.080;2022-11-09T00:41:19;21.00;60.20
24144;DHT22;12307;50.828;6.080;2022-11-09T00:43:45;21.00;60.10
24144;DHT22;12307;50.828;6.080;2022-11-09T00:46:11;21.00;60.10
24144;DHT22;12307;50.828;6.080;2022-11-09T00:48:37;21.00;60.10
24144;DHT22;12307;50.828;6.080;2022-11-09T00:51:02;21.00;60.10
24144;DHT22;12307;50.828;6.080;2022-11-09T00:53:30;21.00;60.10
24144;DHT22;12307;50.828;6.080;2022-11-09T00:55:57;21.00;60.20
24144;DHT22;12307;50.828;6.080;2022-11-09T00:58:23;21.00;60.20
24144;DHT22;12307;50.828;6.080;2022-11-09T01:00:49;21.00;60.20
24144;DHT22;12307;50.828;6.080;2022-11-09T01:03:15;21.00;60.20
24144;DHT22;12307;50.828;6.080;2022-11-09T01:05:42;21.00;60.20
24144;DHT22;12307;50.828;6.080;2022-11-09T01:08:07;21.00;60.20
24144;DHT22;12307;50.828;6.080;2022-11-09T01:10:34;21.00;60.20
24144;DHT22;12307;50.828;6.080;2022-11-09T01:13:00;21.00;60.10
24144;DHT22;12307;50.828;6.080;2022-11-09T01:15:26;21.00;60.10
24144;DHT22;12307;50.828;6.080;2022-11-09T01:17:52;21.00;60.20
24144;DHT22;12307;50.828;6.080;2022-11-09T01:20:17;21.00;60.20
24144;DHT22;12307;50.828;6.080;2022-11-09T01:22:43;21.00;60.20
24144;DHT22;12307;50.828;6.080;2022-11-09T01:25:09;21.00;60.30
24144;DHT22;12307;50.828;6.080;2022-11-09T01:27:36;21.00;60.40
24144;DHT22;12307;50.828;6.080;2022-11-09T01:30:02;21.00;60.40
24144;DHT22;12307;50.828;6.080;2022-11-09T01:32:30;21.00;60.40
24144;DHT22;12307;50.828;6.080;2022-11-09T01:34:56;21.00;60.40
24144;DHT22;12307;50.828;6.080;2022-11-09T01:37:22;21.00;60.60
24144;DHT22;12307;50.828;6.080;2022-11-09T01:39:47;21.00;60.60
24144;DHT22;12307;50.828;6.080;2022-11-09T01:42:13;21.00;60.50
24144;DHT22;12307;50.828;6.080;2022-11-09T01:44:40;21.00;60.20
24144;DHT22;12307;50.828;6.080;2022-11-09T01:47:12;21.00;60.40
24144;DHT22;12307;50.828;6.080;2022-11-09T01:49:43;21.00;60.30
24144;DHT22;12307;50.828;6.080;2022-11-09T01:52:14;21.00;60.40
24144;DHT22;12307;50.828;6.080;2022-11-09T01:54:44;20.90;60.40
24144;DHT22;12307;50.828;6.080;2022-11-09T01:57:16;21.00;60.40
24144;DHT22;12307;50.828;6.080;2022-11-09T01:59:49;21.00;60.30
24144;DHT22;12307;50.828;6.080;2022-11-09T02:02:15;21.00;60.20
24144;DHT22;12307;50.828;6.080;2022-11-09T02:04:45;21.00;60.30
24144;DHT22;12307;50.828;6.080;2022-11-09T02:07:12;21.00;60.20
24144;DHT22;12307;50.828;6.080;2022-11-09T02:09:40;20.90;60.20
24144;DHT22;12307;50.828;6.080;2022-11-09T02:12:08;20.90;60.20
24144;DHT22;12307;50.828;6.080;2022-11-09T02:14:35;20.90;60.20
24144;DHT22;12307;50.828;6.080;2022-11-09T02:17:03;20.90;60.20
24144;DHT22;12307;50.828;6.080;2022-11-09T02:19:29;20.90;60.20
24144;DHT22;12307;50.828;6.080;2022-11-09T02:21:56;20.90;60.20
24144;DHT22;12307;50.828;6.080;2022-11-09T02:24:22;20.90;60.20
24144;DHT22;12307;50.828;6.080;2022-11-09T02:26:49;20.90;60.20
24144;DHT22;12307;50.828;6.080;2022-11-09T02:29:19;20.90;60.20
24144;DHT22;12307;50.828;6.080;2022-11-09T02:31:48;20.90;60.20
24144;DHT22;12307;50.828;6.080;2022-11-09T02:34:17;20.90;60.20
24144;DHT22;12307;50.828;6.080;2022-11-09T02:36:43;20.90;60.40
24144;DHT22;12307;50.828;6.080;2022-11-09T02:39:10;20.90;60.20
24144;DHT22;12307;50.828;6.080;2022-11-09T02:41:41;20.90;60.30
24144;DHT22;12307;50.828;6.080;2022-11-09T02:44:08;20.90;60.40
24144;DHT22;12307;50.828;6.080;2022-11-09T02:46:35;20.90;60.50
24144;DHT22;12307;50.828;6.080;2022-11-09T02:49:02;20.90;60.40
24144;DHT22;12307;50.828;6.080;2022-11-09T02:51:27;20.90;60.40
24144;DHT22;12307;50.828;6.080;2022-11-09T02:53:53;20.90;60.50
24144;DHT22;12307;50.828;6.080;2022-11-09T02:56:20;20.90;60.40
24144;DHT22;12307;50.828;6.080;2022-11-09T02:58:46;20.90;60.40
24144;DHT22;12307;50.828;6.080;2022-11-09T03:01:12;20.90;60.30
24144;DHT22;12307;50.828;6.080;2022-11-09T03:03:37;20.90;60.50
24144;DHT22;12307;50.828;6.080;2022-11-09T03:06:04;20.90;60.50
24144;DHT22;12307;50.828;6.080;2022-11-09T03:08:29;20.90;60.40
24144;DHT22;12307;50.828;6.080;2022-11-09T03:10:55;20.90;60.30
24144;DHT22;12307;50.828;6.080;2022-11-09T03:13:24;20.90;60.40
24144;DHT22;12307;50.828;6.080;2022-11-09T03:15:50;20.90;60.40
24144;DHT22;12307;50.828;6.080;2022-11-09T03:18:15;20.90;60.30
24144;DHT22;12307;50.828;6.080;2022-11-09T03:20:41;20.90;60.20
24144;DHT22;12307;50.828;6.080;2022-11-09T03:23:07;20.90;60.30
24144;DHT22;12307;50.828;6.080;2022-11-09T03:25:33;20.90;60.30
24144;DHT22;12307;50.828;6.080;2022-11-09T03:27:59;20.90;60.20
24144;DHT22;12307;50.828;6.080;2022-11-09T03:30:26;20.90;60.20
24144;DHT22;12307;50.828;6.080;2022-11-09T03:32:56;20.90;60.30
24144;DHT22;12307;50.828;6.080;2022-11-09T03:35:22;20.90;60.20
24144;DHT22;12307;50.828;6.080;2022-11-09T03:37:48;20.90;60.20
24144;DHT22;12307;50.828;6.080;2022-11-09T03:40:13;20.90;60.20
24144;DHT22;12307;50.828;6.080;2022-11-09T03:42:42;20.90;60.30
24144;DHT22;12307;50.828;6.080;2022-11-09T03:45:09;20.90;60.20
24144;DHT22;12307;50.828;6.080;2022-11-09T03:47:39;20.90;60.20
24144;DHT22;12307;50.828;6.080;2022-11-09T03:50:05;20.90;60.40
24144;DHT22;12307;50.828;6.080;2022-11-09T03:52:31;20.90;60.40
24144;DHT22;12307;50.828;6.080;2022-11-09T03:54:57;20.90;60.30
24144;DHT22;12307;50.828;6.080;2022-11-09T03:57:22;20.90;60.30
24144;DHT22;12307;50.828;6.080;2022-11-09T03:59:48;20.90;60.40
24144;DHT22;12307;50.828;6.080;2022-11-09T04:02:13;20.90;60.50
24144;DHT22;12307;50.828;6.080;2022-11-09T04:04:40;20.90;61.00
24144;DHT22;12307;50.828;6.080;2022-11-09T04:07:07;20.90;60.50
24144;DHT22;12307;50.828;6.080;2022-11-09T04:09:33;20.90;60.30
24144;DHT22;12307;50.828;6.080;2022-11-09T04:11:59;20.90;60.30
24144;DHT22;12307;50.828;6.080;2022-11-09T04:14:24;20.90;60.20
24144;DHT22;12307;50.828;6.080;2022-11-09T04:16:50;20.90;60.30
24144;DHT22;12307;50.828;6.080;2022-11-09T04:19:15;20.90;60.40
24144;DHT22;12307;50.828;6.080;2022-11-09T04:21:42;20.90;60.40
24144;DHT22;12307;50.828;6.080;2022-11-09T04:24:08;20.90;60.40
24144;DHT22;12307;50.828;6.080;2022-11-09T04:26:34;20.90;60.30
24144;DHT22;12307;50.828;6.080;2022-11-09T04:29:00;20.90;60.30
24144;DHT22;12307;50.828;6.080;2022-11-09T04:31:25;20.90;60.30
24144;DHT22;12307;50.828;6.080;2022-11-09T04:33:51;20.90;60.40
24144;DHT22;12307;50.828;6.080;2022-11-09T04:36:17;20.90;60.40
24144;DHT22;12307;50.828;6.080;2022-11-09T04:38:44;20.90;60.30
24144;DHT22;12307;50.828;6.080;2022-11-09T04:41:10;20.90;60.30
24144;DHT22;12307;50.828;6.080;2022-11-09T04:43:35;20.90;60.20
24144;DHT22;12307;50.828;6.080;2022-11-09T04:46:02;20.90;60.40
24144;DHT22;12307;50.828;6.080;2022-11-09T04:48:29;20.90;60.30
24144;DHT22;12307;50.828;6.080;2022-11-09T04:50:58;20.90;60.30
24144;DHT22;12307;50.828;6.080;2022-11-09T04:53:24;20.90;60.40
24144;DHT22;12307;50.828;6.080;2022-11-09T04:55:51;20.90;60.40
24144;DHT22;12307;50.828;6.080;2022-11-09T04:58:17;20.90;60.50
24144;DHT22;12307;50.828;6.080;2022-11-09T05:00:43;20.90;60.50
24144;DHT22;12307;50.828;6.080;2022-11-09T05:03:08;20.90;60.60
24144;DHT22;12307;50.828;6.080;2022-11-09T05:05:35;20.90;60.50
24144;DHT22;12307;50.828;6.080;2022-11-09T05:08:01;20.90;60.50
24144;DHT22;12307;50.828;6.080;2022-11-09T05:10:27;20.90;60.50
24144;DHT22;12307;50.828;6.080;2022-11-09T05:12:57;20.90;60.60
24144;DHT22;12307;50.828;6.080;2022-11-09T05:15:23;20.90;60.50
24144;DHT22;12307;50.828;6.080;2022-11-09T05:17:49;20.90;60.70
24144;DHT22;12307;50.828;6.080;2022-11-09T05:20:15;20.90;60.50
24144;DHT22;12307;50.828;6.080;2022-11-09T05:22:41;20.90;60.50
24144;DHT22;12307;50.828;6.080;2022-11-09T05:25:25;20.90;60.60
24144;DHT22;12307;50.828;6.080;2022-11-09T05:27:51;20.90;61.50
24144;DHT22;12307;50.828;6.080;2022-11-09T05:30:18;20.90;60.60
24144;DHT22;12307;50.828;6.080;2022-11-09T05:32:44;20.90;60.60
24144;DHT22;12307;50.828;6.080;2022-11-09T05:35:10;20.90;60.60
24144;DHT22;12307;50.828;6.080;2022-11-09T05:37:37;20.90;60.70
24144;DHT22;12307;50.828;6.080;2022-11-09T05:40:03;20.90;60.70
24144;DHT22;12307;50.828;6.080;2022-11-09T05:42:29;20.90;60.70
24144;DHT22;12307;50.828;6.080;2022-11-09T05:44:54;20.90;60.60
24144;DHT22;12307;50.828;6.080;2022-11-09T05:47:22;20.90;60.60
24144;DHT22;12307;50.828;6.080;2022-11-09T05:49:47;20.90;60.70
24144;DHT22;12307;50.828;6.080;2022-11-09T05:52:13;20.90;60.60
24144;DHT22;12307;50.828;6.080;2022-11-09T05:54:39;20.90;60.60
24144;DHT22;12307;50.828;6.080;2022-11-09T05:57:04;20.90;60.70
24144;DHT22;12307;50.828;6.080;2022-11-09T05:59:30;20.90;60.70
24144;DHT22;12307;50.828;6.080;2022-11-09T06:01:56;20.90;61.70
24144;DHT22;12307;50.828;6.080;2022-11-09T06:04:23;20.90;60.80
24144;DHT22;12307;50.828;6.080;2022-11-09T06:06:48;20.90;60.90
24144;DHT22;12307;50.828;6.080;2022-11-09T06:09:14;20.90;60.90
24144;DHT22;12307;50.828;6.080;2022-11-09T06:11:39;20.90;60.90
24144;DHT22;12307;50.828;6.080;2022-11-09T06:14:05;20.90;60.80
24144;DHT22;12307;50.828;6.080;2022-11-09T06:16:31;20.90;60.80
24144;DHT22;12307;50.828;6.080;2022-11-09T06:18:56;20.90;60.80
24144;DHT22;12307;50.828;6.080;2022-11-09T06:21:23;20.90;60.70
24144;DHT22;12307;50.828;6.080;2022-11-09T06:23:49;20.90;60.80
24144;DHT22;12307;50.828;6.080;2022-11-09T06:26:15;20.90;61.00
24144;DHT22;12307;50.828;6.080;2022-11-09T06:28:40;20.90;61.00
24144;DHT22;12307;50.828;6.080;2022-11-09T06:31:09;20.90;60.80
24144;DHT22;12307;50.828;6.080;2022-11-09T06:33:36;20.90;60.80
24144;DHT22;12307;50.828;6.080;2022-11-09T06:36:02;20.90;60.70
24144;DHT22;12307;50.828;6.080;2022-11-09T06:38:29;20.90;60.70
24144;DHT22;12307;50.828;6.080;2022-11-09T06:40:57;20.90;60.70
24144;DHT22;12307;50.828;6.080;2022-11-09T06:43:23;20.90;61.50
24144;DHT22;12307;50.828;6.080;2022-11-09T06:45:49;20.90;60.80
24144;DHT22;12307;50.828;6.080;2022-11-09T06:48:15;20.90;60.80
24144;DHT22;12307;50.828;6.080;2022-11-09T06:50:41;20.90;60.80
24144;DHT22;12307;50.828;6.080;2022-11-09T06:53:09;20.90;60.80
24144;DHT22;12307;50.828;6.080;2022-11-09T06:55:37;20.90;60.80
24144;DHT22;12307;50.828;6.080;2022-11-09T06:58:05;20.90;60.80
24144;DHT22;12307;50.828;6.080;2022-11-09T07:00:30;20.80;60.70
24144;DHT22;12307;50.828;6.080;2022-11-09T07:02:56;20.80;60.70
24144;DHT22;12307;50.828;6.080;2022-11-09T07:05:22;20.90;60.80
24144;DHT22;12307;50.828;6.080;2022-11-09T07:07:47;20.90;60.70
24144;DHT22;12307;50.828;6.080;2022-11-09T07:10:13;20.90;60.80
24144;DHT22;12307;50.828;6.080;2022-11-09T07:12:40;20.90;60.80
24144;DHT22;12307;50.828;6.080;2022-11-09T07:15:06;20.90;60.90
24144;DHT22;12307;50.828;6.080;2022-11-09T07:17:33;20.90;61.00
24144;DHT22;12307;50.828;6.080;2022-11-09T07:19:59;20.90;60.80
24144;DHT22;12307;50.828;6.080;2022-11-09T07:22:26;20.90;60.70
24144;DHT22;12307;50.828;6.080;2022-11-09T07:24:52;20.90;61.60
24144;DHT22;12307;50.828;6.080;2022-11-09T07:27:17;20.90;60.80
24144;DHT22;12307;50.828;6.080;2022-11-09T07:29:45;20.90;60.70
24144;DHT22;12307;50.828;6.080;2022-11-09T07:32:10;20.90;60.60
24144;DHT22;12307;50.828;6.080;2022-11-09T07:34:36;21.00;60.70
24144;DHT22;12307;50.828;6.080;2022-11-09T07:37:01;21.00;60.80
24144;DHT22;12307;50.828;6.080;2022-11-09T07:39:27;21.00;60.90
24144;DHT22;12307;50.828;6.080;2022-11-09T07:41:53;21.00;60.80
24144;DHT22;12307;50.828;6.080;2022-11-09T07:44:19;21.00;60.70
24144;DHT22;12307;50.828;6.080;2022-11-09T07:46:47;21.00;60.50
24144;DHT22;12307;50.828;6.080;2022-11-09T07:49:14;21.00;60.50
24144;DHT22;12307;50.828;6.080;2022-11-09T07:51:40;21.00;60.50
24144;DHT22;12307;50.828;6.080;2022-11-09T07:54:05;21.10;60.70
24144;DHT22;12307;50.828;6.080;2022-11-09T07:56:31;21.10;60.60
24144;DHT22;12307;50.828;6.080;2022-11-09T07:58:57;21.10;60.70
24144;DHT22;12307;50.828;6.080;2022-11-09T08:01:22;21.00;60.70
24144;DHT22;12307;50.828;6.080;2022-11-09T08:03:51;21.10;60.80
24144;DHT22;12307;50.828;6.080;2022-11-09T08:06:17;21.10;60.70
24144;DHT22;12307;50.828;6.080;2022-11-09T08:08:42;21.10;60.70
24144;DHT22;12307;50.828;6.080;2022-11-09T08:11:08;21.10;60.70
24144;DHT22;12307;50.828;6.080;2022-11-09T08:13:34;21.20;60.60
24144;DHT22;12307;50.828;6.080;2022-11-09T08:16:00;21.20;60.70
24144;DHT22;12307;50.828;6.080;2022-11-09T08:18:26;21.20;60.90
24144;DHT22;12307;50.828;6.080;2022-11-09T08:20:53;21.20;60.90
24144;DHT22;12307;50.828;6.080;2022-11-09T08:23:20;21.20;61.20
24144;DHT22;12307;50.828;6.080;2022-11-09T08:25:46;21.20;61.20
24144;DHT22;12307;50.828;6.080;2022-11-09T08:28:12;21.20;60.70
24144;DHT22;12307;50.828;6.080;2022-11-09T08:30:40;21.30;60.70
24144;DHT22;12307;50.828;6.080;2022-11-09T08:33:06;21.30;60.70
24144;DHT22;12307;50.828;6.080;2022-11-09T08:35:32;21.30;61.00
24144;DHT22;12307;50.828;6.080;2022-11-09T08:38:01;21.30;60.80
24144;DHT22;12307;50.828;6.080;2022-11-09T08:40:28;21.30;60.60
24144;DHT22;12307;50.828;6.080;2022-11-09T08:42:54;21.30;61.00
24144;DHT22;12307;50.828;6.080;2022-11-09T08:45:20;21.30;61.70
24144;DHT22;12307;50.828;6.080;2022-11-09T08:47:46;21.40;62.10
24144;DHT22;12307;50.828;6.080;2022-11-09T08:50:13;21.40;62.60
24144;DHT22;12307;50.828;6.080;2022-11-09T08:52:39;21.40;63.10
24144;DHT22;12307;50.828;6.080;2022-11-09T08:55:07;21.40;62.90
24144;DHT22;12307;50.828;6.080;2022-11-09T08:57:33;21.40;63.00
24144;DHT22;12307;50.828;6.080;2022-11-09T08:59:59;21.40;62.80
24144;DHT22;12307;50.828;6.080;2022-11-09T09:02:24;21.50;62.60
24144;DHT22;12307;50.828;6.080;2022-11-09T09:04:50;21.60;62.40
24144;DHT22;12307;50.828;6.080;2022-11-09T09:07:16;21.60;61.90
24144;DHT22;12307;50.828;6.080;2022-11-09T09:09:42;21.70;61.70
24144;DHT22;12307;50.828;6.080;2022-11-09T09:12:09;21.80;61.20
24144;DHT22;12307;50.828;6.080;2022-11-09T09:14:35;21.90;60.80
24144;DHT22;12307;50.828;6.080;2022-11-09T09:17:01;22.10;60.20
24144;DHT22;12307;50.828;6.080;2022-11-09T09:19:26;22.20;59.80
24144;DHT22;12307;50.828;6.080;2022-11-09T09:21:53;22.30;59.50
24144;DHT22;12307;50.828;6.080;2022-11-09T09:24:18;22.30;59.20
24144;DHT22;12307;50.828;6.080;2022-11-09T09:26:44;22.40;59.00
24144;DHT22;12307;50.828;6.080;2022-11-09T09:29:12;22.40;58.70
24144;DHT22;12307;50.828;6.080;2022-11-09T09:31:37;22.30;58.10
24144;DHT22;12307;50.828;6.080;2022-11-09T09:34:03;22.40;58.30
24144;DHT22;12307;50.828;6.080;2022-11-09T09:36:29;22.40;58.70
24144;DHT22;12307;50.828;6.080;2022-11-09T09:38:54;22.40;58.20
24144;DHT22;12307;50.828;6.080;2022-11-09T09:41:22;22.50;58.40
24144;DHT22;12307;50.828;6.080;2022-11-09T09:43:51;22.50;58.60
24144;DHT22;12307;50.828;6.080;2022-11-09T09:46:23;22.50;58.60
24144;DHT22;12307;50.828;6.080;2022-11-09T09:48:53;22.50;58.50
24144;DHT22;12307;50.828;6.080;2022-11-09T09:51:28;22.50;58.60
24144;DHT22;12307;50.828;6.080;2022-11-09T09:54:01;22.50;58.50
24144;DHT22;12307;50.828;6.080;2022-11-09T09:56:32;22.50;58.60
24144;DHT22;12307;50.828;6.080;2022-11-09T09:59:02;22.50;58.70
24144;DHT22;12307;50.828;6.080;2022-11-09T10:01:36;22.60;58.70
24144;DHT22;12307;50.828;6.080;2022-11-09T10:04:04;22.60;58.60
24144;DHT22;12307;50.828;6.080;2022-11-09T10:06:39;22.60;58.60
24144;DHT22;12307;50.828;6.080;2022-11-09T10:09:16;22.70;57.90
24144;DHT22;12307;50.828;6.080;2022-11-09T10:11:50;22.70;57.60
24144;DHT22;12307;50.828;6.080;2022-11-09T10:14:39;22.70;57.70
24144;DHT22;12307;50.828;6.080;2022-11-09T10:17:21;22.70;57.50
24144;DHT22;12307;50.828;6.080;2022-11-09T10:20:02;22.70;57.70
24144;DHT22;12307;50.828;6.080;2022-11-09T10:22:39;22.70;57.80
24144;DHT22;12307;50.828;6.080;2022-11-09T10:25:13;22.70;57.80
24144;DHT22;12307;50.828;6.080;2022-11-09T10:27:41;22.80;58.00
24144;DHT22;12307;50.828;6.080;2022-11-09T10:30:12;22.80;57.90
24144;DHT22;12307;50.828;6.080;2022-11-09T10:32:42;23.00;57.80
24144;DHT22;12307;50.828;6.080;2022-11-09T10:35:16;23.10;57.60
24144;DHT22;12307;50.828;6.080;2022-11-09T10:37:43;23.30;57.30
24144;DHT22;12307;50.828;6.080;2022-11-09T10:40:15;23.50;57.10
24144;DHT22;12307;50.828;6.080;2022-11-09T10:42:44;23.60;56.90
24144;DHT22;12307;50.828;6.080;2022-11-09T10:45:14;23.80;56.70
24144;DHT22;12307;50.828;6.080;2022-11-09T10:47:48;23.90;56.60
24144;DHT22;12307;50.828;6.080;2022-11-09T10:50:21;24.00;56.60
24144;DHT22;12307;50.828;6.080;2022-11-09T10:52:47;24.00;56.50
24144;DHT22;12307;50.828;6.080;2022-11-09T10:55:23;24.10;56.50
24144;DHT22;12307;50.828;6.080;2022-11-09T10:57:51;24.20;56.40
24144;DHT22;12307;50.828;6.080;2022-11-09T11:00:19;24.30;56.20
24144;DHT22;12307;50.828;6.080;2022-11-09T11:02:47;24.30;56.20
24144;DHT22;12307;50.828;6.080;2022-11-09T11:05:24;24.40;56.20
24144;DHT22;12307;50.828;6.080;2022-11-09T11:07:50;24.40;56.30
24144;DHT22;12307;50.828;6.080;2022-11-09T11:10:20;24.40;56.20
24144;DHT22;12307;50.828;6.080;2022-11-09T11:12:51;24.40;56.10
24144;DHT22;12307;50.828;6.080;2022-11-09T11:15:23;24.50;56.10
24144;DHT22;12307;50.828;6.080;2022-11-09T11:17:59;24.50;56.00
24144;DHT22;12307;50.828;6.080;2022-11-09T11:20:28;24.50;55.80
24144;DHT22;12307;50.828;6.080;2022-11-09T11:23:09;24.50;55.70
24144;DHT22;12307;50.828;6.080;2022-11-09T11:25:37;24.60;55.80
24144;DHT22;12307;50.828;6.080;2022-11-09T11:28:13;24.70;55.70
24144;DHT22;12307;50.828;6.080;2022-11-09T11:30:40;24.70;55.70
24144;DHT22;12307;50.828;6.080;2022-11-09T11:33:13;24.70;55.60
24144;DHT22;12307;50.828;6.080;2022-11-09T11:35:42;24.70;55.60
24144;DHT22;12307;50.828;6.080;2022-11-09T11:38:19;24.70;55.70
24144;DHT22;12307;50.828;6.080;2022-11-09T11:40:55;24.70;55.80
24144;DHT22;12307;50.828;6.080;2022-11-09T11:43:34;24.70;55.80
24144;DHT22;12307;50.828;6.080;2022-11-09T11:46:13;24.70;55.90
24144;DHT22;12307;50.828;6.080;2022-11-09T11:51:45;24.60;56.10
24144;DHT22;12307;50.828;6.080;2022-11-09T11:54:18;24.60;56.20
24144;DHT22;12307;50.828;6.080;2022-11-09T11:56:56;24.60;56.20
24144;DHT22;12307;50.828;6.080;2022-11-09T11:59:38;24.60;56.30
24144;DHT22;12307;50.828;6.080;2022-11-09T12:02:27;24.60;56.30
24144;DHT22;12307;50.828;6.080;2022-11-09T12:05:21;24.60;56.50
24144;DHT22;12307;50.828;6.080;2022-11-09T12:07:54;24.60;55.40
24144;DHT22;12307;50.828;6.080;2022-11-09T12:10:30;24.50;55.80
24144;DHT22;12307;50.828;6.080;2022-11-09T12:13:06;24.40;56.40
24144;DHT22;12307;50.828;6.080;2022-11-09T12:15:51;24.30;56.30
24144;DHT22;12307;50.828;6.080;2022-11-09T12:18:29;24.10;56.50
24144;DHT22;12307;50.828;6.080;2022-11-09T12:21:11;24.10;56.70
24144;DHT22;12307;50.828;6.080;2022-11-09T12:23:53;24.00;57.00
24144;DHT22;12307;50.828;6.080;2022-11-09T12:26:28;23.80;57.10
24144;DHT22;12307;50.828;6.080;2022-11-09T12:29:08;23.70;57.30
24144;DHT22;12307;50.828;6.080;2022-11-09T12:31:47;23.60;57.60
24144;DHT22;12307;50.828;6.080;2022-11-09T12:34:18;23.60;57.60
24144;DHT22;12307;50.828;6.080;2022-11-09T12:36:51;23.50;57.70
24144;DHT22;12307;50.828;6.080;2022-11-09T12:39:21;23.50;57.80
24144;DHT22;12307;50.828;6.080;2022-11-09T12:41:52;23.50;57.90
24144;DHT22;12307;50.828;6.080;2022-11-09T12:44:24;23.50;58.00
24144;DHT22;12307;50.828;6.080;2022-11-09T12:46:55;23.50;58.10
24144;DHT22;12307;50.828;6.080;2022-11-09T12:49:33;23.50;58.10
24144;DHT22;12307;50.828;6.080;2022-11-09T12:52:01;23.50;58.10
24144;DHT22;12307;50.828;6.080;2022-11-09T12:54:27;23.40;58.20
24144;DHT22;12307;50.828;6.080;2022-11-09T12:56:55;23.40;58.30
24144;DHT22;12307;50.828;6.080;2022-11-09T12:59:33;23.40;58.30
24144;DHT22;12307;50.828;6.080;2022-11-09T13:02:00;23.40;58.40
24144;DHT22;12307;50.828;6.080;2022-11-09T13:04:27;23.40;58.60
24144;DHT22;12307;50.828;6.080;2022-11-09T13:07:18;23.40;58.50
24144;DHT22;12307;50.828;6.080;2022-11-09T13:09:52;23.30;58.60
24144;DHT22;12307;50.828;6.080;2022-11-09T13:12:27;23.30;58.70
24144;DHT22;12307;50.828;6.080;2022-11-09T13:14:54;23.30;58.70
24144;DHT22;12307;50.828;6.080;2022-11-09T13:20:45;23.20;59.00
24144;DHT22;12307;50.828;6.080;2022-11-09T13:23:33;23.10;59.10
24144;DHT22;12307;50.828;6.080;2022-11-09T13:26:00;23.10;59.20
24144;DHT22;12307;50.828;6.080;2022-11-09T13:29:06;23.10;59.40
24144;DHT22;12307;50.828;6.080;2022-11-09T13:32:02;23.00;59.40
24144;DHT22;12307;50.828;6.080;2022-11-09T13:34:46;23.00;59.50
24144;DHT22;12307;50.828;6.080;2022-11-09T13:37:34;23.00;59.40
24144;DHT22;12307;50.828;6.080;2022-11-09T13:43:21;22.90;58.90
24144;DHT22;12307;50.828;6.080;2022-11-09T13:45:49;22.80;58.80
24144;DHT22;12307;50.828;6.080;2022-11-09T13:48:25;22.80;58.60
24144;DHT22;12307;50.828;6.080;2022-11-09T13:50:55;22.70;58.70
24144;DHT22;12307;50.828;6.080;2022-11-09T13:53:49;22.70;58.80
24144;DHT22;12307;50.828;6.080;2022-11-09T13:56:25;22.70;58.40
24144;DHT22;12307;50.828;6.080;2022-11-09T13:58:53;22.70;58.20
24144;DHT22;12307;50.828;6.080;2022-11-09T14:01:28;22.70;57.80
24144;DHT22;12307;50.828;6.080;2022-11-09T14:03:54;22.60;57.30
24144;DHT22;12307;50.828;6.080;2022-11-09T14:06:20;22.60;57.80
24144;DHT22;12307;50.828;6.080;2022-11-09T14:08:46;22.60;57.60
24144;DHT22;12307;50.828;6.080;2022-11-09T14:11:22;22.60;57.80
24144;DHT22;12307;50.828;6.080;2022-11-09T14:14:15;22.50;57.60
24144;DHT22;12307;50.828;6.080;2022-11-09T14:16:49;22.50;57.30
24144;DHT22;12307;50.828;6.080;2022-11-09T14:19:25;22.50;57.20
24144;DHT22;12307;50.828;6.080;2022-11-09T14:21:53;22.40;56.50
24144;DHT22;12307;50.828;6.080;2022-11-09T14:24:20;22.40;55.90
24144;DHT22;12307;50.828;6.080;2022-11-09T14:27:02;22.40;56.00
24144;DHT22;12307;50.828;6.080;2022-11-09T14:29:28;22.30;55.90
24144;DHT22;12307;50.828;6.080;2022-11-09T14:31:58;22.30;55.90
24144;DHT22;12307;50.828;6.080;2022-11-09T14:34:24;22.30;56.40
24144;DHT22;12307;50.828;6.080;2022-11-09T14:36:50;22.20;56.50
24144;DHT22;12307;50.828;6.080;2022-11-09T14:39:24;22.20;57.30
24144;DHT22;12307;50.828;6.080;2022-11-09T14:41:50;22.20;57.10
24144;DHT22;12307;50.828;6.080;2022-11-09T14:44:24;22.20;57.20
24144;DHT22;12307;50.828;6.080;2022-11-09T14:46:51;22.20;56.60
24144;DHT22;12307;50.828;6.080;2022-11-09T14:49:17;22.20;56.90
24144;DHT22;12307;50.828;6.080;2022-11-09T14:51:45;22.20;56.50
24144;DHT22;12307;50.828;6.080;2022-11-09T14:54:14;22.20;56.60
24144;DHT22;12307;50.828;6.080;2022-11-09T14:56:41;22.20;57.00
24144;DHT22;12307;50.828;6.080;2022-11-09T14:59:10;22.20;57.00
24144;DHT22;12307;50.828;6.080;2022-11-09T15:01:37;22.10;56.90
24144;DHT22;12307;50.828;6.080;2022-11-09T15:04:12;22.10;56.80
24144;DHT22;12307;50.828;6.080;2022-11-09T15:06:45;22.10;56.90
24144;DHT22;12307;50.828;6.080;2022-11-09T15:09:18;22.10;57.00
24144;DHT22;12307;50.828;6.080;2022-11-09T15:11:44;22.10;57.30
24144;DHT22;12307;50.828;6.080;2022-11-09T15:14:12;22.10;57.30
24144;DHT22;12307;50.828;6.080;2022-11-09T15:16:40;22.00;57.20
24144;DHT22;12307;50.828;6.080;2022-11-09T15:19:19;22.00;57.50
24144;DHT22;12307;50.828;6.080;2022-11-09T15:21:45;22.00;57.60
24144;DHT22;12307;50.828;6.080;2022-11-09T15:24:14;22.00;57.60
24144;DHT22;12307;50.828;6.080;2022-11-09T15:26:42;22.00;57.70
24144;DHT22;12307;50.828;6.080;2022-11-09T15:29:33;22.00;57.80
24144;DHT22;12307;50.828;6.080;2022-11-09T15:32:10;22.00;57.80
24144;DHT22;12307;50.828;6.080;2022-11-09T15:34:38;21.90;57.70
24144;DHT22;12307;50.828;6.080;2022-11-09T15:37:16;21.90;57.40
24144;DHT22;12307;50.828;6.080;2022-11-09T15:39:42;21.90;57.80
24144;DHT22;12307;50.828;6.080;2022-11-09T15:42:09;21.90;57.80
24144;DHT22;12307;50.828;6.080;2022-11-09T15:44:35;21.90;57.80
24144;DHT22;12307;50.828;6.080;2022-11-09T15:47:03;21.80;58.00
24144;DHT22;12307;50.828;6.080;2022-11-09T15:49:40;21.80;57.90
24144;DHT22;12307;50.828;6.080;2022-11-09T15:52:08;21.80;57.90